BIAR

Akureyri Airport

Akureyri, Iceland
METAR BIAR 152000Z 34010KT 9999 BKN007 OVC053 10/09 Q0998
Observed Flight Rules
Jul-15 @ 20:00 UTC (47 minutes ago) Instrument Flight Rules
Wind Visibility Clouds
340° at 10 knots 10,000+ meters
  • Broken at 700' AGL
  • Overcast at 5,300' AGL
Temperatures Readings
Current 10°C / 50°F
Dewpoint 9°C / 48°F
Humidity 94%
Altimeter 29.47" Hg
Pressure 998 hPa
Elevation 27
METAR BIAR 152000Z 34010KT 9999 BKN007 OVC053 10/09 Q0998
Observed Flight Rules
Jul-15 @ 20:00 UTC
(47 minutes ago)
IFR
Wind Visibility
340° at 10 knots 10,000+ meters
Clouds
  • Broken at 700' AGL
  • Overcast at 5,300' AGL
Temperature Dewpoint
10°C / 50°F 9°C / 48°F
Humidity Altimeter Pressure
94% 29.47" Hg 998 hPa